createdAt,value
2023-03-22T00:02:46.813Z,4.36
2023-03-22T00:06:25.719Z,4.33
2023-03-22T00:10:02.054Z,4.33
2023-03-22T00:13:42.531Z,4.35
2023-03-22T00:17:17.761Z,4.37
2023-03-22T00:20:59.743Z,4.39
2023-03-22T00:24:33.110Z,4.40
2023-03-22T00:28:11.249Z,4.40
2023-03-22T00:31:49.362Z,4.42
2023-03-22T00:35:26.042Z,4.45
2023-03-22T00:39:03.872Z,4.47
2023-03-22T00:42:42.095Z,4.50
2023-03-22T00:46:21.306Z,4.52
2023-03-22T00:49:57.388Z,4.53
2023-03-22T00:53:35.414Z,4.54
2023-03-22T00:57:15.079Z,4.53
2023-03-22T01:00:49.420Z,4.52
2023-03-22T01:04:27.279Z,4.53
2023-03-22T01:08:08.734Z,4.51
2023-03-22T01:11:43.927Z,4.50
2023-03-22T01:18:57.949Z,4.52
2023-03-22T01:22:35.853Z,4.51
2023-03-22T01:26:13.047Z,4.51
2023-03-22T01:29:51.042Z,4.51
2023-03-22T01:33:28.538Z,4.55
2023-03-22T01:37:06.331Z,4.60
2023-03-22T01:40:44.583Z,4.65
2023-03-22T01:44:23.312Z,4.70
2023-03-22T01:48:03.138Z,4.72
2023-03-22T01:51:36.931Z,4.72
2023-03-22T01:55:14.632Z,4.71
2023-03-22T01:58:54.653Z,4.68
2023-03-22T02:02:31.145Z,4.64
2023-03-22T02:06:08.286Z,4.64
2023-03-22T02:09:46.793Z,4.65
2023-03-22T02:13:39.112Z,4.64
2023-03-22T02:17:12.950Z,4.61
2023-03-22T02:24:43.942Z,4.57
2023-03-22T02:28:31.162Z,4.55
2023-03-22T02:31:48.911Z,4.56
2023-03-22T02:35:31.510Z,4.52
2023-03-22T02:39:05.388Z,4.51
2023-03-22T02:42:30.843Z,4.46
2023-03-22T02:46:23.634Z,4.41
2023-03-22T02:50:14.652Z,4.38
2023-03-22T02:53:20.973Z,4.38
2023-03-22T02:57:23.078Z,4.41
2023-03-22T03:00:36.794Z,4.49
2023-03-22T03:04:16.918Z,4.58
2023-03-22T03:07:57.631Z,4.65
2023-03-22T03:11:26.037Z,4.71
2023-03-22T03:15:13.988Z,4.73
2023-03-22T03:18:54.185Z,4.73
2023-03-22T03:22:56.965Z,4.71
2023-03-22T03:26:03.136Z,4.69
2023-03-22T03:29:41.511Z,4.67
2023-03-22T03:33:17.781Z,4.68
2023-03-22T03:36:58.740Z,4.70
2023-03-22T03:40:54.135Z,4.72
2023-03-22T03:44:07.341Z,4.77
2023-03-22T03:47:46.956Z,4.79
2023-03-22T03:51:21.376Z,4.78
2023-03-22T03:54:58.857Z,4.79
2023-03-22T03:58:37.368Z,4.79
2023-03-22T04:02:14.156Z,4.75
2023-03-22T04:05:51.962Z,4.72
2023-03-22T04:09:35.446Z,4.70
2023-03-22T04:13:07.473Z,4.69
2023-03-22T04:16:47.406Z,4.69
2023-03-22T04:20:22.785Z,4.73
2023-03-22T04:24:00.630Z,4.75
2023-03-22T04:27:42.347Z,4.77
2023-03-22T04:31:16.039Z,4.79
2023-03-22T04:34:53.556Z,4.86
2023-03-22T04:38:31.026Z,4.95
2023-03-22T04:42:08.881Z,5.04
2023-03-22T04:45:46.385Z,5.11
2023-03-22T04:49:24.180Z,5.15
2023-03-22T04:53:26.605Z,5.18
2023-03-22T04:56:39.605Z,5.20
2023-03-22T05:00:18.672Z,5.22
2023-03-22T05:03:55.073Z,5.21
2023-03-22T05:07:32.553Z,5.21
2023-03-22T05:11:13.910Z,5.20
2023-03-22T05:14:47.517Z,5.21
2023-03-22T05:18:26.468Z,5.24
2023-03-22T05:22:03.044Z,5.26
2023-03-22T05:25:45.353Z,5.28
2023-03-22T05:29:18.315Z,5.29
2023-03-22T05:33:00.644Z,5.30
2023-03-22T05:36:36.589Z,5.33
2023-03-22T05:40:12.717Z,5.33
2023-03-22T05:43:51.504Z,5.35
2023-03-22T05:47:26.878Z,5.34
2023-03-22T05:51:09.411Z,5.33
2023-03-22T05:54:42.182Z,5.33
2023-03-22T05:58:20.205Z,5.31
2023-03-22T06:01:57.330Z,5.31
2023-03-22T06:05:54.712Z,5.31
2023-03-22T06:09:17.535Z,5.31
2023-03-22T06:12:50.795Z,5.30
2023-03-22T06:16:28.410Z,5.29
2023-03-22T06:20:11.934Z,5.30
2023-03-22T06:23:44.158Z,5.29
2023-03-22T06:27:22.206Z,5.30
2023-03-22T06:30:58.706Z,5.32
2023-03-22T06:34:36.978Z,5.34
2023-03-22T06:38:15.133Z,5.34
2023-03-22T06:41:52.107Z,5.36
2023-03-22T06:45:33.513Z,5.37
2023-03-22T06:49:08.107Z,5.40
2023-03-22T06:52:44.931Z,5.42
2023-03-22T06:56:22.830Z,5.46
2023-03-22T07:00:00.374Z,5.51
2023-03-22T07:03:38.170Z,5.60
2023-03-22T07:07:16.036Z,5.71
2023-03-22T07:10:53.376Z,5.87
2023-03-22T07:14:31.695Z,6.12
2023-03-22T07:18:08.787Z,6.57
2023-03-22T07:21:46.420Z,6.89
2023-03-22T07:25:24.399Z,6.97
2023-03-22T07:29:02.151Z,7.04
2023-03-22T07:32:42.241Z,7.04
2023-03-22T07:36:17.237Z,7.04
2023-03-22T07:39:54.672Z,7.04
2023-03-22T07:43:37.134Z,7.02
2023-03-22T07:47:10.321Z,6.98
2023-03-22T07:50:48.270Z,6.97
2023-03-22T07:54:33.288Z,6.99
2023-03-22T07:58:04.011Z,6.99
2023-03-22T08:01:40.934Z,6.95
2023-03-22T08:05:18.978Z,6.99
2023-03-22T08:08:56.620Z,7.02
2023-03-22T08:12:35.577Z,7.04
2023-03-22T08:16:11.684Z,7.08
2023-03-22T08:19:50.257Z,7.01
2023-03-22T08:23:40.530Z,6.92
2023-03-22T08:27:08.133Z,6.88
2023-03-22T08:30:47.774Z,6.93
2023-03-22T08:34:23.413Z,7.04
2023-03-22T08:38:01.480Z,7.23
2023-03-22T08:41:39.635Z,7.32
2023-03-22T08:45:17.294Z,7.29
2023-03-22T08:48:54.942Z,7.21
2023-03-22T08:52:32.215Z,7.13
2023-03-22T08:56:09.751Z,7.10
2023-03-22T08:59:47.050Z,7.10
2023-03-22T09:03:26.613Z,7.13
2023-03-22T09:07:02.984Z,7.14
2023-03-22T09:10:40.567Z,7.18
2023-03-22T09:14:17.644Z,7.18
2023-03-22T09:17:56.604Z,7.22
2023-03-22T09:21:33.466Z,7.27
2023-03-22T09:25:13.018Z,7.30
2023-03-22T09:28:48.888Z,7.31
2023-03-22T09:32:27.017Z,7.41
2023-03-22T09:36:06.009Z,7.38
2023-03-22T09:39:42.040Z,7.25
2023-03-22T09:43:20.943Z,7.15
2023-03-22T09:47:00.131Z,7.01
2023-03-22T09:50:47.830Z,6.96
2023-03-22T09:54:31.472Z,6.85
2023-03-22T09:58:07.844Z,6.76
2023-03-22T10:01:35.500Z,6.72
2023-03-22T10:05:28.557Z,6.75
2023-03-22T10:09:11.170Z,6.74
2023-03-22T10:12:53.538Z,6.86
2023-03-22T10:16:02.405Z,7.40
2023-03-22T10:19:58.758Z,7.83
2023-03-22T10:23:18.873Z,8.03
2023-03-22T10:34:38.390Z,8.47
2023-03-22T10:38:22.876Z,8.57
2023-03-22T10:41:57.999Z,8.74
2023-03-22T10:45:35.278Z,8.99
2023-03-22T10:49:18.830Z,9.26
2023-03-22T10:53:04.776Z,9.56
2023-03-22T10:56:25.242Z,9.88
2023-03-22T11:00:10.048Z,10.28
2023-03-22T11:03:43.037Z,10.71
2023-03-22T11:07:47.584Z,10.95
2023-03-22T11:10:59.389Z,11.08
2023-03-22T11:14:36.976Z,11.04
2023-03-22T11:18:16.121Z,11.18
2023-03-22T11:21:48.364Z,11.33
2023-03-22T11:25:34.817Z,11.51
2023-03-22T11:29:16.701Z,11.72
2023-03-22T11:32:41.364Z,11.90
2023-03-22T11:36:26.544Z,11.83
2023-03-22T11:40:02.227Z,11.52
2023-03-22T11:43:42.456Z,11.23
2023-03-22T11:47:14.060Z,11.24
2023-03-22T11:50:53.900Z,11.11
2023-03-22T11:54:35.781Z,10.96
2023-03-22T11:58:06.718Z,10.96
2023-03-22T12:02:13.428Z,11.01
2023-03-22T12:05:30.607Z,11.05
2023-03-22T12:09:35.917Z,10.88
2023-03-22T12:12:44.645Z,10.85
2023-03-22T12:16:23.028Z,10.81
2023-03-22T12:20:06.300Z,10.89
2023-03-22T12:23:32.924Z,10.98
2023-03-22T12:27:17.699Z,11.24
2023-03-22T12:30:56.428Z,11.38
2023-03-22T12:34:33.894Z,11.23
2023-03-22T12:38:11.326Z,11.11
2023-03-22T12:41:43.670Z,11.13
2023-03-22T12:45:25.013Z,11.18
2023-03-22T12:49:15.659Z,11.16
2023-03-22T12:52:56.086Z,11.05
2023-03-22T12:56:40.045Z,10.88
2023-03-22T12:59:51.807Z,10.69
2023-03-22T13:03:51.559Z,10.47
2023-03-22T13:07:29.253Z,10.25
2023-03-22T13:11:03.388Z,10.03
2023-03-22T13:14:51.521Z,9.90
2023-03-22T13:17:56.823Z,9.78
2023-03-22T13:21:33.733Z,9.62
2023-03-22T13:25:12.640Z,9.50
2023-03-22T13:28:58.516Z,9.45
2023-03-22T13:32:32.894Z,9.40
2023-03-22T13:36:25.469Z,9.42
2023-03-22T13:39:41.247Z,9.41
2023-03-22T13:43:29.736Z,9.39
2023-03-22T13:47:01.836Z,9.28
2023-03-22T13:50:35.148Z,9.23
2023-03-22T13:54:16.470Z,9.13
2023-03-22T13:57:59.159Z,9.10
2023-03-22T14:01:35.213Z,9.11
2023-03-22T14:05:18.756Z,9.09
2023-03-22T14:08:47.331Z,9.07
2023-03-22T14:12:32.482Z,9.06
2023-03-22T14:16:08.669Z,9.04
2023-03-22T14:19:37.783Z,8.96
